sensor_id;sensor_type;location;lat;lon;timestamp;P1;durP1;ratioP1;P2;durP2;ratioP2
83115;SDS011;72996;40.206;44.498;2024-03-25T00:00:28;22.58;;;11.20;;
83115;SDS011;72996;40.206;44.498;2024-03-25T00:02:54;20.58;;;11.18;;
83115;SDS011;72996;40.206;44.498;2024-03-25T00:05:20;19.63;;;10.35;;
83115;SDS011;72996;40.206;44.498;2024-03-25T00:07:50;16.05;;;9.45;;
83115;SDS011;72996;40.206;44.498;2024-03-25T00:10:17;14.80;;;8.38;;
83115;SDS011;72996;40.206;44.498;2024-03-25T00:12:43;14.48;;;8.27;;
83115;SDS011;72996;40.206;44.498;2024-03-25T00:15:09;11.98;;;7.30;;
83115;SDS011;72996;40.206;44.498;2024-03-25T00:17:34;11.57;;;6.65;;
83115;SDS011;72996;40.206;44.498;2024-03-25T00:20:00;14.30;;;7.35;;
83115;SDS011;72996;40.206;44.498;2024-03-25T00:22:26;13.73;;;7.28;;
83115;SDS011;72996;40.206;44.498;2024-03-25T00:24:52;14.38;;;7.63;;
83115;SDS011;72996;40.206;44.498;2024-03-25T00:27:18;15.05;;;7.40;;
83115;SDS011;72996;40.206;44.498;2024-03-25T00:29:44;11.70;;;7.30;;
83115;SDS011;72996;40.206;44.498;2024-03-25T00:32:10;12.35;;;6.82;;
83115;SDS011;72996;40.206;44.498;2024-03-25T00:34:36;13.65;;;7.20;;
83115;SDS011;72996;40.206;44.498;2024-03-25T00:37:02;13.02;;;7.10;;
83115;SDS011;72996;40.206;44.498;2024-03-25T00:39:29;13.98;;;7.47;;
83115;SDS011;72996;40.206;44.498;2024-03-25T00:41:57;13.25;;;7.82;;
83115;SDS011;72996;40.206;44.498;2024-03-25T00:44:23;13.32;;;7.50;;
83115;SDS011;72996;40.206;44.498;2024-03-25T00:46:50;20.10;;;11.15;;
83115;SDS011;72996;40.206;44.498;2024-03-25T00:49:16;21.35;;;11.25;;
83115;SDS011;72996;40.206;44.498;2024-03-25T00:51:42;24.30;;;12.75;;
83115;SDS011;72996;40.206;44.498;2024-03-25T00:54:08;20.90;;;10.82;;
83115;SDS011;72996;40.206;44.498;2024-03-25T00:56:34;22.42;;;12.60;;
83115;SDS011;72996;40.206;44.498;2024-03-25T00:59:00;23.65;;;11.77;;
83115;SDS011;72996;40.206;44.498;2024-03-25T01:01:29;23.73;;;11.95;;
83115;SDS011;72996;40.206;44.498;2024-03-25T01:03:55;23.10;;;12.07;;
83115;SDS011;72996;40.206;44.498;2024-03-25T01:06:21;22.70;;;12.32;;
83115;SDS011;72996;40.206;44.498;2024-03-25T01:08:47;21.35;;;11.50;;
83115;SDS011;72996;40.206;44.498;2024-03-25T01:11:12;21.42;;;10.95;;
83115;SDS011;72996;40.206;44.498;2024-03-25T01:13:38;21.48;;;10.57;;
83115;SDS011;72996;40.206;44.498;2024-03-25T01:16:04;17.77;;;10.35;;
83115;SDS011;72996;40.206;44.498;2024-03-25T01:18:30;20.92;;;10.32;;
83115;SDS011;72996;40.206;44.498;2024-03-25T01:20:55;19.60;;;11.18;;
83115;SDS011;72996;40.206;44.498;2024-03-25T01:23:21;21.08;;;10.52;;
83115;SDS011;72996;40.206;44.498;2024-03-25T01:25:47;22.27;;;10.70;;
83115;SDS011;72996;40.206;44.498;2024-03-25T01:28:12;17.38;;;10.25;;
83115;SDS011;72996;40.206;44.498;2024-03-25T01:30:38;18.95;;;9.55;;
83115;SDS011;72996;40.206;44.498;2024-03-25T01:33:04;18.55;;;9.57;;
83115;SDS011;72996;40.206;44.498;2024-03-25T01:35:30;16.88;;;8.85;;
83115;SDS011;72996;40.206;44.498;2024-03-25T01:37:56;18.23;;;9.10;;
83115;SDS011;72996;40.206;44.498;2024-03-25T01:40:22;17.52;;;9.57;;
83115;SDS011;72996;40.206;44.498;2024-03-25T01:43:01;15.68;;;8.73;;
83115;SDS011;72996;40.206;44.498;2024-03-25T01:45:30;16.38;;;8.85;;
83115;SDS011;72996;40.206;44.498;2024-03-25T01:47:57;15.65;;;8.93;;
83115;SDS011;72996;40.206;44.498;2024-03-25T01:50:24;18.00;;;9.90;;
83115;SDS011;72996;40.206;44.498;2024-03-25T01:52:51;14.73;;;8.25;;
83115;SDS011;72996;40.206;44.498;2024-03-25T01:55:20;16.33;;;8.88;;
83115;SDS011;72996;40.206;44.498;2024-03-25T01:57:49;15.30;;;8.38;;
83115;SDS011;72996;40.206;44.498;2024-03-25T02:00:15;16.80;;;8.07;;
83115;SDS011;72996;40.206;44.498;2024-03-25T02:02:44;13.52;;;7.15;;
83115;SDS011;72996;40.206;44.498;2024-03-25T02:05:11;16.23;;;7.50;;
83115;SDS011;72996;40.206;44.498;2024-03-25T02:07:37;15.90;;;8.30;;
83115;SDS011;72996;40.206;44.498;2024-03-25T02:10:04;18.95;;;8.57;;
83115;SDS011;72996;40.206;44.498;2024-03-25T02:12:30;16.65;;;8.00;;
83115;SDS011;72996;40.206;44.498;2024-03-25T02:14:57;16.58;;;7.32;;
83115;SDS011;72996;40.206;44.498;2024-03-25T02:17:24;15.38;;;8.10;;
83115;SDS011;72996;40.206;44.498;2024-03-25T02:19:50;16.67;;;8.43;;
83115;SDS011;72996;40.206;44.498;2024-03-25T02:22:16;15.50;;;7.63;;
83115;SDS011;72996;40.206;44.498;2024-03-25T02:24:43;14.32;;;7.72;;
83115;SDS011;72996;40.206;44.498;2024-03-25T02:27:13;14.88;;;8.35;;
83115;SDS011;72996;40.206;44.498;2024-03-25T02:29:41;15.43;;;7.97;;
83115;SDS011;72996;40.206;44.498;2024-03-25T02:34:39;16.50;;;8.38;;
83115;SDS011;72996;40.206;44.498;2024-03-25T02:37:06;13.35;;;7.40;;
83115;SDS011;72996;40.206;44.498;2024-03-25T02:39:32;14.75;;;8.07;;
83115;SDS011;72996;40.206;44.498;2024-03-25T02:41:59;15.55;;;7.55;;
83115;SDS011;72996;40.206;44.498;2024-03-25T02:44:25;15.43;;;7.95;;
83115;SDS011;72996;40.206;44.498;2024-03-25T02:46:51;17.40;;;8.30;;
83115;SDS011;72996;40.206;44.498;2024-03-25T02:49:18;15.43;;;8.00;;
83115;SDS011;72996;40.206;44.498;2024-03-25T02:51:44;15.68;;;7.93;;
83115;SDS011;72996;40.206;44.498;2024-03-25T02:54:09;15.18;;;7.82;;
83115;SDS011;72996;40.206;44.498;2024-03-25T02:56:35;14.07;;;7.25;;
83115;SDS011;72996;40.206;44.498;2024-03-25T02:59:01;15.73;;;7.60;;
83115;SDS011;72996;40.206;44.498;2024-03-25T03:01:27;16.33;;;8.75;;
83115;SDS011;72996;40.206;44.498;2024-03-25T03:03:52;17.90;;;8.68;;
83115;SDS011;72996;40.206;44.498;2024-03-25T03:06:18;13.00;;;7.18;;
83115;SDS011;72996;40.206;44.498;2024-03-25T03:08:44;15.70;;;8.27;;
83115;SDS011;72996;40.206;44.498;2024-03-25T03:11:10;17.45;;;8.82;;
83115;SDS011;72996;40.206;44.498;2024-03-25T03:13:36;17.13;;;8.40;;
83115;SDS011;72996;40.206;44.498;2024-03-25T03:16:01;15.23;;;7.63;;
83115;SDS011;72996;40.206;44.498;2024-03-25T03:18:27;18.48;;;9.68;;
83115;SDS011;72996;40.206;44.498;2024-03-25T03:20:53;23.67;;;8.15;;
83115;SDS011;72996;40.206;44.498;2024-03-25T03:23:22;17.75;;;8.80;;
83115;SDS011;72996;40.206;44.498;2024-03-25T03:25:48;17.88;;;8.57;;
83115;SDS011;72996;40.206;44.498;2024-03-25T03:28:14;15.90;;;9.07;;
83115;SDS011;72996;40.206;44.498;2024-03-25T03:30:40;16.15;;;8.82;;
83115;SDS011;72996;40.206;44.498;2024-03-25T03:33:06;15.77;;;9.02;;
83115;SDS011;72996;40.206;44.498;2024-03-25T03:35:35;13.40;;;8.10;;
83115;SDS011;72996;40.206;44.498;2024-03-25T03:38:00;20.10;;;9.52;;
83115;SDS011;72996;40.206;44.498;2024-03-25T03:40:26;16.75;;;9.55;;
83115;SDS011;72996;40.206;44.498;2024-03-25T03:42:53;18.25;;;9.70;;
83115;SDS011;72996;40.206;44.498;2024-03-25T03:45:19;16.98;;;8.30;;
83115;SDS011;72996;40.206;44.498;2024-03-25T03:47:44;16.23;;;10.05;;
83115;SDS011;72996;40.206;44.498;2024-03-25T03:50:10;21.23;;;9.98;;
83115;SDS011;72996;40.206;44.498;2024-03-25T03:52:36;16.38;;;8.20;;
83115;SDS011;72996;40.206;44.498;2024-03-25T03:55:02;17.88;;;9.25;;
83115;SDS011;72996;40.206;44.498;2024-03-25T03:57:30;20.48;;;10.43;;
83115;SDS011;72996;40.206;44.498;2024-03-25T03:59:57;22.10;;;9.55;;
83115;SDS011;72996;40.206;44.498;2024-03-25T04:02:23;12.57;;;7.13;;
83115;SDS011;72996;40.206;44.498;2024-03-25T04:04:48;15.15;;;8.95;;
83115;SDS011;72996;40.206;44.498;2024-03-25T04:07:16;12.40;;;7.18;;
83115;SDS011;72996;40.206;44.498;2024-03-25T04:09:41;15.32;;;8.75;;
83115;SDS011;72996;40.206;44.498;2024-03-25T04:12:07;17.52;;;7.97;;
83115;SDS011;72996;40.206;44.498;2024-03-25T04:14:33;11.55;;;6.70;;
83115;SDS011;72996;40.206;44.498;2024-03-25T04:17:01;13.80;;;6.22;;
83115;SDS011;72996;40.206;44.498;2024-03-25T04:19:28;13.80;;;7.80;;
83115;SDS011;72996;40.206;44.498;2024-03-25T04:21:54;11.55;;;6.82;;
83115;SDS011;72996;40.206;44.498;2024-03-25T04:24:19;10.45;;;6.13;;
83115;SDS011;72996;40.206;44.498;2024-03-25T04:26:45;10.82;;;6.38;;
83115;SDS011;72996;40.206;44.498;2024-03-25T04:29:11;10.00;;;6.20;;
83115;SDS011;72996;40.206;44.498;2024-03-25T04:31:37;9.65;;;5.55;;
83115;SDS011;72996;40.206;44.498;2024-03-25T04:34:03;16.63;;;8.85;;
83115;SDS011;72996;40.206;44.498;2024-03-25T04:36:29;12.15;;;7.50;;
83115;SDS011;72996;40.206;44.498;2024-03-25T04:38:56;11.15;;;6.40;;
83115;SDS011;72996;40.206;44.498;2024-03-25T04:41:22;11.40;;;5.75;;
83115;SDS011;72996;40.206;44.498;2024-03-25T04:43:48;11.80;;;6.28;;
83115;SDS011;72996;40.206;44.498;2024-03-25T04:46:14;14.02;;;7.50;;
83115;SDS011;72996;40.206;44.498;2024-03-25T04:48:39;17.63;;;8.93;;
83115;SDS011;72996;40.206;44.498;2024-03-25T04:51:05;14.70;;;7.72;;
83115;SDS011;72996;40.206;44.498;2024-03-25T04:53:32;13.65;;;8.73;;
83115;SDS011;72996;40.206;44.498;2024-03-25T04:55:57;12.48;;;7.47;;
83115;SDS011;72996;40.206;44.498;2024-03-25T04:58:23;13.52;;;8.00;;
83115;SDS011;72996;40.206;44.498;2024-03-25T05:00:49;11.57;;;6.80;;
83115;SDS011;72996;40.206;44.498;2024-03-25T05:03:14;10.25;;;5.60;;
83115;SDS011;72996;40.206;44.498;2024-03-25T05:05:40;10.55;;;6.38;;
83115;SDS011;72996;40.206;44.498;2024-03-25T05:08:06;9.43;;;5.68;;
83115;SDS011;72996;40.206;44.498;2024-03-25T05:10:32;8.98;;;5.97;;
83115;SDS011;72996;40.206;44.498;2024-03-25T05:12:57;11.15;;;6.20;;
83115;SDS011;72996;40.206;44.498;2024-03-25T05:15:23;10.45;;;6.32;;
83115;SDS011;72996;40.206;44.498;2024-03-25T05:17:49;12.80;;;7.57;;
83115;SDS011;72996;40.206;44.498;2024-03-25T05:20:14;12.40;;;7.53;;
83115;SDS011;72996;40.206;44.498;2024-03-25T05:22:40;9.85;;;6.88;;
83115;SDS011;72996;40.206;44.498;2024-03-25T05:25:06;11.40;;;6.57;;
83115;SDS011;72996;40.206;44.498;2024-03-25T05:27:32;12.02;;;6.28;;
83115;SDS011;72996;40.206;44.498;2024-03-25T05:29:58;13.25;;;7.18;;
83115;SDS011;72996;40.206;44.498;2024-03-25T05:32:24;12.45;;;7.40;;
83115;SDS011;72996;40.206;44.498;2024-03-25T05:34:50;11.18;;;6.95;;
83115;SDS011;72996;40.206;44.498;2024-03-25T05:37:16;10.70;;;7.28;;
83115;SDS011;72996;40.206;44.498;2024-03-25T05:39:41;10.23;;;6.22;;
83115;SDS011;72996;40.206;44.498;2024-03-25T05:42:07;9.65;;;5.97;;
83115;SDS011;72996;40.206;44.498;2024-03-25T05:44:33;10.48;;;6.05;;
83115;SDS011;72996;40.206;44.498;2024-03-25T05:46:58;8.65;;;4.97;;
83115;SDS011;72996;40.206;44.498;2024-03-25T05:49:24;9.40;;;5.55;;
83115;SDS011;72996;40.206;44.498;2024-03-25T05:51:51;9.40;;;6.07;;
83115;SDS011;72996;40.206;44.498;2024-03-25T05:54:16;10.38;;;6.05;;
83115;SDS011;72996;40.206;44.498;2024-03-25T05:56:42;9.15;;;5.47;;
83115;SDS011;72996;40.206;44.498;2024-03-25T05:59:08;7.90;;;5.70;;
83115;SDS011;72996;40.206;44.498;2024-03-25T06:01:33;9.02;;;5.95;;
83115;SDS011;72996;40.206;44.498;2024-03-25T06:04:02;8.20;;;5.30;;
83115;SDS011;72996;40.206;44.498;2024-03-25T06:06:28;9.00;;;5.25;;
83115;SDS011;72996;40.206;44.498;2024-03-25T06:08:54;9.07;;;5.65;;
83115;SDS011;72996;40.206;44.498;2024-03-25T06:11:20;12.55;;;7.18;;
83115;SDS011;72996;40.206;44.498;2024-03-25T06:13:46;11.60;;;6.90;;
83115;SDS011;72996;40.206;44.498;2024-03-25T06:16:12;9.77;;;6.47;;
83115;SDS011;72996;40.206;44.498;2024-03-25T06:18:38;9.68;;;5.78;;
83115;SDS011;72996;40.206;44.498;2024-03-25T06:21:05;11.43;;;7.10;;
83115;SDS011;72996;40.206;44.498;2024-03-25T06:23:31;9.50;;;6.05;;
83115;SDS011;72996;40.206;44.498;2024-03-25T06:25:57;12.95;;;6.60;;
83115;SDS011;72996;40.206;44.498;2024-03-25T06:28:23;9.48;;;5.75;;
83115;SDS011;72996;40.206;44.498;2024-03-25T06:30:49;9.25;;;5.78;;
83115;SDS011;72996;40.206;44.498;2024-03-25T06:33:35;9.32;;;6.30;;
83115;SDS011;72996;40.206;44.498;2024-03-25T06:36:19;9.52;;;5.90;;
83115;SDS011;72996;40.206;44.498;2024-03-25T06:38:46;8.45;;;5.25;;
83115;SDS011;72996;40.206;44.498;2024-03-25T06:41:12;8.88;;;5.65;;
83115;SDS011;72996;40.206;44.498;2024-03-25T06:43:38;9.68;;;6.40;;
83115;SDS011;72996;40.206;44.498;2024-03-25T06:46:04;11.00;;;6.10;;
83115;SDS011;72996;40.206;44.498;2024-03-25T06:48:31;10.20;;;6.68;;
83115;SDS011;72996;40.206;44.498;2024-03-25T06:50:58;8.73;;;5.22;;
83115;SDS011;72996;40.206;44.498;2024-03-25T06:53:24;10.25;;;5.72;;
83115;SDS011;72996;40.206;44.498;2024-03-25T06:55:51;9.52;;;5.88;;
83115;SDS011;72996;40.206;44.498;2024-03-25T06:58:20;9.90;;;5.55;;
83115;SDS011;72996;40.206;44.498;2024-03-25T07:00:46;10.40;;;6.18;;
83115;SDS011;72996;40.206;44.498;2024-03-25T07:03:13;12.00;;;7.50;;
83115;SDS011;72996;40.206;44.498;2024-03-25T07:05:40;11.68;;;6.90;;
83115;SDS011;72996;40.206;44.498;2024-03-25T07:08:08;14.85;;;7.50;;
83115;SDS011;72996;40.206;44.498;2024-03-25T07:10:37;11.50;;;7.57;;
83115;SDS011;72996;40.206;44.498;2024-03-25T07:13:04;13.30;;;8.18;;
83115;SDS011;72996;40.206;44.498;2024-03-25T07:15:31;12.40;;;7.15;;
83115;SDS011;72996;40.206;44.498;2024-03-25T07:17:56;10.90;;;6.65;;
83115;SDS011;72996;40.206;44.498;2024-03-25T07:20:23;12.75;;;7.57;;
83115;SDS011;72996;40.206;44.498;2024-03-25T07:22:49;13.32;;;7.18;;
83115;SDS011;72996;40.206;44.498;2024-03-25T07:25:15;12.25;;;7.78;;
83115;SDS011;72996;40.206;44.498;2024-03-25T07:27:40;12.23;;;7.68;;
83115;SDS011;72996;40.206;44.498;2024-03-25T07:30:08;13.18;;;8.90;;
83115;SDS011;72996;40.206;44.498;2024-03-25T07:32:35;13.98;;;7.82;;
83115;SDS011;72996;40.206;44.498;2024-03-25T07:35:01;14.23;;;9.13;;
83115;SDS011;72996;40.206;44.498;2024-03-25T07:37:27;16.73;;;9.25;;
83115;SDS011;72996;40.206;44.498;2024-03-25T07:39:53;17.98;;;10.27;;
83115;SDS011;72996;40.206;44.498;2024-03-25T07:42:18;17.17;;;10.13;;
83115;SDS011;72996;40.206;44.498;2024-03-25T07:44:44;20.85;;;12.30;;
83115;SDS011;72996;40.206;44.498;2024-03-25T07:47:10;20.40;;;11.95;;
83115;SDS011;72996;40.206;44.498;2024-03-25T07:49:35;18.95;;;12.30;;
83115;SDS011;72996;40.206;44.498;2024-03-25T07:52:01;19.70;;;13.02;;
83115;SDS011;72996;40.206;44.498;2024-03-25T07:54:27;20.55;;;11.90;;
83115;SDS011;72996;40.206;44.498;2024-03-25T07:56:53;19.30;;;12.07;;
83115;SDS011;72996;40.206;44.498;2024-03-25T07:59:19;17.20;;;9.95;;
83115;SDS011;72996;40.206;44.498;2024-03-25T08:01:44;17.65;;;10.82;;
83115;SDS011;72996;40.206;44.498;2024-03-25T08:04:10;17.02;;;10.40;;
83115;SDS011;72996;40.206;44.498;2024-03-25T08:06:36;18.35;;;10.68;;
83115;SDS011;72996;40.206;44.498;2024-03-25T08:09:04;17.92;;;11.57;;
83115;SDS011;72996;40.206;44.498;2024-03-25T08:11:32;21.67;;;13.10;;
83115;SDS011;72996;40.206;44.498;2024-03-25T08:13:58;19.77;;;12.05;;
83115;SDS011;72996;40.206;44.498;2024-03-25T08:16:24;17.77;;;11.25;;
83115;SDS011;72996;40.206;44.498;2024-03-25T08:18:50;17.45;;;10.77;;
83115;SDS011;72996;40.206;44.498;2024-03-25T08:21:16;17.67;;;10.20;;
83115;SDS011;72996;40.206;44.498;2024-03-25T08:23:45;21.05;;;11.88;;
83115;SDS011;72996;40.206;44.498;2024-03-25T08:26:11;17.00;;;10.65;;
83115;SDS011;72996;40.206;44.498;2024-03-25T08:28:37;16.33;;;10.43;;
83115;SDS011;72996;40.206;44.498;2024-03-25T08:31:03;15.82;;;9.65;;
83115;SDS011;72996;40.206;44.498;2024-03-25T08:33:29;15.75;;;10.27;;
83115;SDS011;72996;40.206;44.498;2024-03-25T08:35:55;15.57;;;9.88;;
83115;SDS011;72996;40.206;44.498;2024-03-25T08:38:21;20.05;;;11.05;;
83115;SDS011;72996;40.206;44.498;2024-03-25T08:40:50;14.52;;;10.13;;
83115;SDS011;72996;40.206;44.498;2024-03-25T08:43:16;15.48;;;9.50;;
83115;SDS011;72996;40.206;44.498;2024-03-25T08:45:43;18.70;;;11.00;;
83115;SDS011;72996;40.206;44.498;2024-03-25T08:48:09;14.50;;;8.68;;
83115;SDS011;72996;40.206;44.498;2024-03-25T08:50:35;15.07;;;8.85;;
83115;SDS011;72996;40.206;44.498;2024-03-25T08:53:01;15.60;;;10.52;;
83115;SDS011;72996;40.206;44.498;2024-03-25T08:55:28;14.82;;;9.52;;
83115;SDS011;72996;40.206;44.498;2024-03-25T08:57:53;18.17;;;10.48;;
83115;SDS011;72996;40.206;44.498;2024-03-25T09:00:19;16.10;;;8.93;;
83115;SDS011;72996;40.206;44.498;2024-03-25T09:02:45;19.88;;;11.88;;
83115;SDS011;72996;40.206;44.498;2024-03-25T09:05:11;16.98;;;10.15;;
83115;SDS011;72996;40.206;44.498;2024-03-25T09:07:38;16.30;;;11.23;;
83115;SDS011;72996;40.206;44.498;2024-03-25T09:10:04;16.70;;;10.15;;
83115;SDS011;72996;40.206;44.498;2024-03-25T09:12:49;18.50;;;9.98;;
83115;SDS011;72996;40.206;44.498;2024-03-25T09:15:15;18.55;;;10.68;;
83115;SDS011;72996;40.206;44.498;2024-03-25T09:17:40;11.23;;;6.78;;
83115;SDS011;72996;40.206;44.498;2024-03-25T09:20:06;12.38;;;8.23;;
83115;SDS011;72996;40.206;44.498;2024-03-25T09:22:42;13.52;;;8.85;;
83115;SDS011;72996;40.206;44.498;2024-03-25T09:25:08;17.13;;;9.27;;
83115;SDS011;72996;40.206;44.498;2024-03-25T09:27:34;12.43;;;6.80;;
83115;SDS011;72996;40.206;44.498;2024-03-25T09:30:00;10.65;;;6.72;;
83115;SDS011;72996;40.206;44.498;2024-03-25T09:32:25;14.27;;;8.68;;
83115;SDS011;72996;40.206;44.498;2024-03-25T09:34:51;12.50;;;8.48;;
83115;SDS011;72996;40.206;44.498;2024-03-25T09:37:17;9.60;;;6.47;;
83115;SDS011;72996;40.206;44.498;2024-03-25T09:39:43;12.35;;;7.38;;
83115;SDS011;72996;40.206;44.498;2024-03-25T09:42:09;12.65;;;7.80;;
83115;SDS011;72996;40.206;44.498;2024-03-25T09:44:40;15.77;;;9.20;;
83115;SDS011;72996;40.206;44.498;2024-03-25T09:47:06;11.63;;;7.47;;
83115;SDS011;72996;40.206;44.498;2024-03-25T09:49:35;12.23;;;8.05;;
83115;SDS011;72996;40.206;44.498;2024-03-25T09:52:02;13.43;;;7.28;;
83115;SDS011;72996;40.206;44.498;2024-03-25T09:54:27;12.90;;;8.02;;
83115;SDS011;72996;40.206;44.498;2024-03-25T09:56:54;11.48;;;7.70;;
83115;SDS011;72996;40.206;44.498;2024-03-25T09:59:20;10.32;;;7.68;;
83115;SDS011;72996;40.206;44.498;2024-03-25T10:01:46;10.60;;;6.93;;
83115;SDS011;72996;40.206;44.498;2024-03-25T10:04:12;13.07;;;7.90;;
83115;SDS011;72996;40.206;44.498;2024-03-25T10:06:39;12.68;;;8.25;;
83115;SDS011;72996;40.206;44.498;2024-03-25T10:09:08;28.85;;;15.10;;
83115;SDS011;72996;40.206;44.498;2024-03-25T10:11:34;13.77;;;8.90;;
83115;SDS011;72996;40.206;44.498;2024-03-25T10:14:03;16.60;;;11.48;;
83115;SDS011;72996;40.206;44.498;2024-03-25T10:16:28;11.90;;;8.60;;
83115;SDS011;72996;40.206;44.498;2024-03-25T10:18:54;23.70;;;21.08;;
83115;SDS011;72996;40.206;44.498;2024-03-25T10:21:20;16.95;;;10.98;;
83115;SDS011;72996;40.206;44.498;2024-03-25T10:23:47;11.07;;;6.70;;
83115;SDS011;72996;40.206;44.498;2024-03-25T10:26:30;9.52;;;7.28;;
83115;SDS011;72996;40.206;44.498;2024-03-25T10:29:03;10.57;;;7.75;;
83115;SDS011;72996;40.206;44.498;2024-03-25T10:31:31;11.02;;;7.45;;
83115;SDS011;72996;40.206;44.498;2024-03-25T10:33:57;13.07;;;7.72;;
83115;SDS011;72996;40.206;44.498;2024-03-25T10:36:24;11.18;;;7.97;;
83115;SDS011;72996;40.206;44.498;2024-03-25T10:38:57;11.45;;;8.30;;
83115;SDS011;72996;40.206;44.498;2024-03-25T10:41:32;9.27;;;6.55;;
83115;SDS011;72996;40.206;44.498;2024-03-25T10:44:00;9.93;;;6.60;;
83115;SDS011;72996;40.206;44.498;2024-03-25T10:46:31;10.65;;;6.88;;
83115;SDS011;72996;40.206;44.498;2024-03-25T10:48:59;9.63;;;5.93;;
83115;SDS011;72996;40.206;44.498;2024-03-25T10:51:32;11.88;;;7.82;;
83115;SDS011;72996;40.206;44.498;2024-03-25T10:54:00;11.52;;;8.52;;
83115;SDS011;72996;40.206;44.498;2024-03-25T10:56:28;10.13;;;6.25;;
83115;SDS011;72996;40.206;44.498;2024-03-25T10:58:54;10.63;;;6.35;;
83115;SDS011;72996;40.206;44.498;2024-03-25T11:01:28;10.85;;;6.63;;
83115;SDS011;72996;40.206;44.498;2024-03-25T11:03:55;10.65;;;7.25;;
83115;SDS011;72996;40.206;44.498;2024-03-25T11:06:22;11.52;;;7.75;;
83115;SDS011;72996;40.206;44.498;2024-03-25T11:08:55;14.68;;;7.88;;
83115;SDS011;72996;40.206;44.498;2024-03-25T11:11:22;11.93;;;6.53;;
83115;SDS011;72996;40.206;44.498;2024-03-25T11:13:48;11.50;;;7.80;;
83115;SDS011;72996;40.206;44.498;2024-03-25T11:16:25;10.23;;;6.45;;
83115;SDS011;72996;40.206;44.498;2024-03-25T11:18:53;10.00;;;5.57;;
83115;SDS011;72996;40.206;44.498;2024-03-25T11:21:24;11.02;;;6.82;;
83115;SDS011;72996;40.206;44.498;2024-03-25T11:23:50;8.27;;;5.55;;
83115;SDS011;72996;40.206;44.498;2024-03-25T11:26:20;12.18;;;8.57;;
83115;SDS011;72996;40.206;44.498;2024-03-25T11:28:55;11.43;;;6.80;;
83115;SDS011;72996;40.206;44.498;2024-03-25T11:31:22;8.60;;;6.22;;
83115;SDS011;72996;40.206;44.498;2024-03-25T11:33:51;10.00;;;6.55;;
83115;SDS011;72996;40.206;44.498;2024-03-25T11:36:16;11.90;;;5.47;;
83115;SDS011;72996;40.206;44.498;2024-03-25T11:38:44;10.95;;;5.85;;
83115;SDS011;72996;40.206;44.498;2024-03-25T11:43:37;11.23;;;5.95;;
83115;SDS011;72996;40.206;44.498;2024-03-25T11:46:03;9.57;;;6.05;;
83115;SDS011;72996;40.206;44.498;2024-03-25T11:48:29;9.15;;;5.30;;
83115;SDS011;72996;40.206;44.498;2024-03-25T11:50:55;9.63;;;5.82;;
83115;SDS011;72996;40.206;44.498;2024-03-25T11:53:20;9.13;;;5.80;;
83115;SDS011;72996;40.206;44.498;2024-03-25T11:55:47;14.32;;;9.27;;
83115;SDS011;72996;40.206;44.498;2024-03-25T11:58:13;11.23;;;6.43;;
83115;SDS011;72996;40.206;44.498;2024-03-25T12:00:46;12.43;;;6.07;;
83115;SDS011;72996;40.206;44.498;2024-03-25T12:03:15;8.65;;;5.78;;
83115;SDS011;72996;40.206;44.498;2024-03-25T12:05:44;9.27;;;6.00;;
83115;SDS011;72996;40.206;44.498;2024-03-25T12:08:10;8.82;;;5.60;;
83115;SDS011;72996;40.206;44.498;2024-03-25T12:10:37;10.27;;;6.22;;
83115;SDS011;72996;40.206;44.498;2024-03-25T12:13:21;11.35;;;6.05;;
83115;SDS011;72996;40.206;44.498;2024-03-25T12:15:49;9.65;;;6.40;;
83115;SDS011;72996;40.206;44.498;2024-03-25T12:18:14;8.45;;;5.30;;
83115;SDS011;72996;40.206;44.498;2024-03-25T12:20:40;7.93;;;5.20;;
83115;SDS011;72996;40.206;44.498;2024-03-25T12:23:07;9.88;;;5.90;;
83115;SDS011;72996;40.206;44.498;2024-03-25T12:25:33;10.55;;;6.68;;
83115;SDS011;72996;40.206;44.498;2024-03-25T12:27:59;10.00;;;6.10;;
83115;SDS011;72996;40.206;44.498;2024-03-25T12:30:24;10.07;;;5.80;;
83115;SDS011;72996;40.206;44.498;2024-03-25T12:32:58;11.23;;;5.97;;
83115;SDS011;72996;40.206;44.498;2024-03-25T12:35:25;8.43;;;5.55;;
83115;SDS011;72996;40.206;44.498;2024-03-25T12:37:54;6.88;;;4.20;;
83115;SDS011;72996;40.206;44.498;2024-03-25T12:40:26;6.70;;;4.35;;
83115;SDS011;72996;40.206;44.498;2024-03-25T12:42:53;7.07;;;4.20;;
83115;SDS011;72996;40.206;44.498;2024-03-25T12:45:22;6.53;;;4.00;;
83115;SDS011;72996;40.206;44.498;2024-03-25T12:47:49;9.38;;;4.97;;
83115;SDS011;72996;40.206;44.498;2024-03-25T12:50:16;9.50;;;5.22;;
83115;SDS011;72996;40.206;44.498;2024-03-25T12:52:41;7.40;;;4.85;;
83115;SDS011;72996;40.206;44.498;2024-03-25T12:55:07;7.18;;;4.47;;
83115;SDS011;72996;40.206;44.498;2024-03-25T12:57:34;9.43;;;4.28;;
83115;SDS011;72996;40.206;44.498;2024-03-25T13:00:00;7.28;;;3.92;;
83115;SDS011;72996;40.206;44.498;2024-03-25T13:02:28;6.45;;;3.80;;
83115;SDS011;72996;40.206;44.498;2024-03-25T13:04:54;5.93;;;3.63;;
83115;SDS011;72996;40.206;44.498;2024-03-25T13:07:20;6.25;;;3.92;;
83115;SDS011;72996;40.206;44.498;2024-03-25T13:09:46;7.63;;;3.42;;
83115;SDS011;72996;40.206;44.498;2024-03-25T13:12:12;6.50;;;3.42;;
83115;SDS011;72996;40.206;44.498;2024-03-25T13:14:37;7.10;;;3.65;;
83115;SDS011;72996;40.206;44.498;2024-03-25T13:17:03;6.65;;;3.60;;
83115;SDS011;72996;40.206;44.498;2024-03-25T13:19:29;5.85;;;3.55;;
83115;SDS011;72996;40.206;44.498;2024-03-25T13:21:55;8.20;;;3.92;;
83115;SDS011;72996;40.206;44.498;2024-03-25T13:24:21;9.98;;;6.35;;
83115;SDS011;72996;40.206;44.498;2024-03-25T13:26:47;6.63;;;4.20;;
83115;SDS011;72996;40.206;44.498;2024-03-25T13:29:12;6.15;;;3.63;;
83115;SDS011;72996;40.206;44.498;2024-03-25T13:31:38;7.20;;;3.67;;
83115;SDS011;72996;40.206;44.498;2024-03-25T13:34:04;6.55;;;4.03;;
83115;SDS011;72996;40.206;44.498;2024-03-25T13:36:29;6.82;;;4.53;;
83115;SDS011;72996;40.206;44.498;2024-03-25T13:38:56;7.38;;;4.50;;
83115;SDS011;72996;40.206;44.498;2024-03-25T13:41:22;8.20;;;4.50;;
83115;SDS011;72996;40.206;44.498;2024-03-25T13:43:49;10.80;;;5.32;;
83115;SDS011;72996;40.206;44.498;2024-03-25T13:46:15;7.68;;;4.65;;
83115;SDS011;72996;40.206;44.498;2024-03-25T13:48:41;6.82;;;3.58;;
83115;SDS011;72996;40.206;44.498;2024-03-25T13:51:08;8.70;;;4.32;;
83115;SDS011;72996;40.206;44.498;2024-03-25T13:53:34;8.43;;;4.75;;
83115;SDS011;72996;40.206;44.498;2024-03-25T13:56:10;5.55;;;3.03;;
83115;SDS011;72996;40.206;44.498;2024-03-25T13:58:35;6.00;;;3.22;;
83115;SDS011;72996;40.206;44.498;2024-03-25T14:01:01;6.10;;;3.92;;
83115;SDS011;72996;40.206;44.498;2024-03-25T14:03:27;9.85;;;4.32;;
83115;SDS011;72996;40.206;44.498;2024-03-25T14:05:52;6.75;;;4.30;;
83115;SDS011;72996;40.206;44.498;2024-03-25T14:08:18;7.07;;;4.45;;
83115;SDS011;72996;40.206;44.498;2024-03-25T14:10:44;7.13;;;4.25;;
83115;SDS011;72996;40.206;44.498;2024-03-25T14:13:10;4.93;;;3.00;;
83115;SDS011;72996;40.206;44.498;2024-03-25T14:15:35;7.40;;;4.28;;
83115;SDS011;72996;40.206;44.498;2024-03-25T14:18:01;10.45;;;5.28;;
83115;SDS011;72996;40.206;44.498;2024-03-25T14:20:27;10.80;;;5.07;;
83115;SDS011;72996;40.206;44.498;2024-03-25T14:22:52;6.68;;;3.63;;
83115;SDS011;72996;40.206;44.498;2024-03-25T14:25:18;6.53;;;3.60;;